sensor_id;sensor_type;location;lat;lon;timestamp;P1;durP1;ratioP1;P2;durP2;ratioP2
6529;SDS011;3298;42.688;23.366;2023-03-20T00:00:41;36.33;;;17.07;;
6529;SDS011;3298;42.688;23.366;2023-03-20T00:03:09;36.67;;;16.73;;
6529;SDS011;3298;42.688;23.366;2023-03-20T00:05:37;31.17;;;18.03;;
6529;SDS011;3298;42.688;23.366;2023-03-20T00:08:05;30.13;;;17.23;;
6529;SDS011;3298;42.688;23.366;2023-03-20T00:10:33;29.20;;;16.07;;
6529;SDS011;3298;42.688;23.366;2023-03-20T00:13:04;32.63;;;16.67;;
6529;SDS011;3298;42.688;23.366;2023-03-20T00:15:34;38.17;;;16.30;;
6529;SDS011;3298;42.688;23.366;2023-03-20T00:18:03;25.33;;;15.23;;
6529;SDS011;3298;42.688;23.366;2023-03-20T00:20:37;25.37;;;15.87;;
6529;SDS011;3298;42.688;23.366;2023-03-20T00:23:03;30.27;;;15.00;;
6529;SDS011;3298;42.688;23.366;2023-03-20T00:25:30;30.23;;;15.87;;
6529;SDS011;3298;42.688;23.366;2023-03-20T00:27:58;34.90;;;15.43;;
6529;SDS011;3298;42.688;23.366;2023-03-20T00:30:27;32.67;;;15.03;;
6529;SDS011;3298;42.688;23.366;2023-03-20T00:32:55;33.37;;;15.33;;
6529;SDS011;3298;42.688;23.366;2023-03-20T00:35:24;32.60;;;15.03;;
6529;SDS011;3298;42.688;23.366;2023-03-20T00:37:54;27.37;;;15.67;;
6529;SDS011;3298;42.688;23.366;2023-03-20T00:40:22;26.30;;;14.70;;
6529;SDS011;3298;42.688;23.366;2023-03-20T00:42:55;31.97;;;15.73;;
6529;SDS011;3298;42.688;23.366;2023-03-20T00:45:25;28.77;;;14.77;;
6529;SDS011;3298;42.688;23.366;2023-03-20T00:47:55;28.53;;;13.97;;
6529;SDS011;3298;42.688;23.366;2023-03-20T00:50:23;34.80;;;16.27;;
6529;SDS011;3298;42.688;23.366;2023-03-20T00:52:51;29.07;;;16.20;;
6529;SDS011;3298;42.688;23.366;2023-03-20T00:55:19;27.93;;;15.97;;
6529;SDS011;3298;42.688;23.366;2023-03-20T00:57:48;24.97;;;14.90;;
6529;SDS011;3298;42.688;23.366;2023-03-20T01:00:24;28.60;;;15.07;;
6529;SDS011;3298;42.688;23.366;2023-03-20T01:02:57;29.23;;;16.00;;
6529;SDS011;3298;42.688;23.366;2023-03-20T01:05:25;32.87;;;15.57;;
6529;SDS011;3298;42.688;23.366;2023-03-20T01:07:53;28.87;;;15.50;;
6529;SDS011;3298;42.688;23.366;2023-03-20T01:10:29;27.47;;;16.27;;
6529;SDS011;3298;42.688;23.366;2023-03-20T01:12:58;34.60;;;15.97;;
6529;SDS011;3298;42.688;23.366;2023-03-20T01:15:29;30.30;;;16.67;;
6529;SDS011;3298;42.688;23.366;2023-03-20T01:17:57;31.77;;;16.60;;
6529;SDS011;3298;42.688;23.366;2023-03-20T01:20:25;36.40;;;17.60;;
6529;SDS011;3298;42.688;23.366;2023-03-20T01:22:53;30.63;;;15.90;;
6529;SDS011;3298;42.688;23.366;2023-03-20T01:25:20;31.13;;;16.33;;
6529;SDS011;3298;42.688;23.366;2023-03-20T01:27:48;34.70;;;17.90;;
6529;SDS011;3298;42.688;23.366;2023-03-20T01:30:17;35.10;;;17.53;;
6529;SDS011;3298;42.688;23.366;2023-03-20T01:32:50;25.30;;;15.83;;
6529;SDS011;3298;42.688;23.366;2023-03-20T01:35:17;34.00;;;16.50;;
6529;SDS011;3298;42.688;23.366;2023-03-20T01:37:47;30.50;;;16.27;;
6529;SDS011;3298;42.688;23.366;2023-03-20T01:42:58;28.17;;;16.03;;
6529;SDS011;3298;42.688;23.366;2023-03-20T01:45:28;30.73;;;15.13;;
6529;SDS011;3298;42.688;23.366;2023-03-20T01:48:01;23.87;;;14.80;;
6529;SDS011;3298;42.688;23.366;2023-03-20T01:50:37;30.80;;;16.07;;
6529;SDS011;3298;42.688;23.366;2023-03-20T01:53:07;29.40;;;15.70;;
6529;SDS011;3298;42.688;23.366;2023-03-20T01:55:37;25.53;;;15.50;;
6529;SDS011;3298;42.688;23.366;2023-03-20T01:58:08;24.73;;;15.20;;
6529;SDS011;3298;42.688;23.366;2023-03-20T02:00:38;29.73;;;16.27;;
6529;SDS011;3298;42.688;23.366;2023-03-20T02:03:07;28.00;;;16.33;;
6529;SDS011;3298;42.688;23.366;2023-03-20T02:05:34;26.00;;;16.17;;
6529;SDS011;3298;42.688;23.366;2023-03-20T02:08:09;30.57;;;17.07;;
6529;SDS011;3298;42.688;23.366;2023-03-20T02:10:43;30.27;;;16.37;;
6529;SDS011;3298;42.688;23.366;2023-03-20T02:13:11;28.50;;;15.67;;
6529;SDS011;3298;42.688;23.366;2023-03-20T02:15:56;28.07;;;15.67;;
6529;SDS011;3298;42.688;23.366;2023-03-20T02:18:26;45.77;;;21.67;;
6529;SDS011;3298;42.688;23.366;2023-03-20T02:21:09;54.93;;;23.90;;
6529;SDS011;3298;42.688;23.366;2023-03-20T02:24:27;52.37;;;24.50;;
6529;SDS011;3298;42.688;23.366;2023-03-20T02:27:17;33.67;;;18.20;;
6529;SDS011;3298;42.688;23.366;2023-03-20T02:30:04;36.90;;;19.53;;
6529;SDS011;3298;42.688;23.366;2023-03-20T02:41:42;34.33;;;18.57;;
6529;SDS011;3298;42.688;23.366;2023-03-20T02:44:18;34.97;;;17.97;;
6529;SDS011;3298;42.688;23.366;2023-03-20T02:46:52;37.37;;;18.40;;
6529;SDS011;3298;42.688;23.366;2023-03-20T02:49:28;31.13;;;19.03;;
6529;SDS011;3298;42.688;23.366;2023-03-20T02:52:10;38.23;;;20.13;;
6529;SDS011;3298;42.688;23.366;2023-03-20T02:54:44;44.57;;;20.63;;
6529;SDS011;3298;42.688;23.366;2023-03-20T02:57:22;43.80;;;19.67;;
6529;SDS011;3298;42.688;23.366;2023-03-20T03:00:00;40.20;;;20.23;;
6529;SDS011;3298;42.688;23.366;2023-03-20T03:02:34;33.63;;;19.00;;
6529;SDS011;3298;42.688;23.366;2023-03-20T03:05:06;46.97;;;21.17;;
6529;SDS011;3298;42.688;23.366;2023-03-20T03:07:37;42.80;;;20.33;;
6529;SDS011;3298;42.688;23.366;2023-03-20T03:10:08;39.83;;;20.03;;
6529;SDS011;3298;42.688;23.366;2023-03-20T03:12:41;43.20;;;20.50;;
6529;SDS011;3298;42.688;23.366;2023-03-20T03:15:12;40.20;;;20.97;;
6529;SDS011;3298;42.688;23.366;2023-03-20T03:17:43;42.33;;;20.10;;
6529;SDS011;3298;42.688;23.366;2023-03-20T03:20:13;35.50;;;19.10;;
6529;SDS011;3298;42.688;23.366;2023-03-20T03:22:48;39.03;;;19.87;;
6529;SDS011;3298;42.688;23.366;2023-03-20T03:25:15;39.93;;;18.87;;
6529;SDS011;3298;42.688;23.366;2023-03-20T03:27:43;41.00;;;19.30;;
6529;SDS011;3298;42.688;23.366;2023-03-20T03:30:15;38.00;;;16.83;;
6529;SDS011;3298;42.688;23.366;2023-03-20T03:32:46;37.27;;;18.37;;
6529;SDS011;3298;42.688;23.366;2023-03-20T03:35:16;35.63;;;18.97;;
6529;SDS011;3298;42.688;23.366;2023-03-20T03:37:48;38.13;;;19.00;;
6529;SDS011;3298;42.688;23.366;2023-03-20T03:40:25;36.03;;;17.40;;
6529;SDS011;3298;42.688;23.366;2023-03-20T03:43:02;37.80;;;18.70;;
6529;SDS011;3298;42.688;23.366;2023-03-20T03:45:35;38.43;;;19.20;;
6529;SDS011;3298;42.688;23.366;2023-03-20T03:48:05;34.97;;;19.07;;
6529;SDS011;3298;42.688;23.366;2023-03-20T03:50:37;34.93;;;18.47;;
6529;SDS011;3298;42.688;23.366;2023-03-20T03:53:12;38.03;;;18.53;;
6529;SDS011;3298;42.688;23.366;2023-03-20T03:55:43;37.20;;;18.57;;
6529;SDS011;3298;42.688;23.366;2023-03-20T03:58:16;50.10;;;19.83;;
6529;SDS011;3298;42.688;23.366;2023-03-20T04:00:47;37.80;;;18.70;;
6529;SDS011;3298;42.688;23.366;2023-03-20T04:03:16;32.93;;;17.83;;
6529;SDS011;3298;42.688;23.366;2023-03-20T04:05:46;41.50;;;17.97;;
6529;SDS011;3298;42.688;23.366;2023-03-20T04:08:15;32.83;;;17.50;;
6529;SDS011;3298;42.688;23.366;2023-03-20T04:10:42;44.67;;;19.07;;
6529;SDS011;3298;42.688;23.366;2023-03-20T04:13:09;36.30;;;18.77;;
6529;SDS011;3298;42.688;23.366;2023-03-20T04:15:38;33.53;;;17.23;;
6529;SDS011;3298;42.688;23.366;2023-03-20T04:18:05;35.70;;;18.93;;
6529;SDS011;3298;42.688;23.366;2023-03-20T04:20:31;35.57;;;18.13;;
6529;SDS011;3298;42.688;23.366;2023-03-20T04:22:59;37.70;;;19.27;;
6529;SDS011;3298;42.688;23.366;2023-03-20T04:25:26;41.37;;;19.43;;
6529;SDS011;3298;42.688;23.366;2023-03-20T04:27:52;37.93;;;19.97;;
6529;SDS011;3298;42.688;23.366;2023-03-20T04:30:20;49.13;;;21.50;;
6529;SDS011;3298;42.688;23.366;2023-03-20T04:32:48;47.67;;;23.77;;
6529;SDS011;3298;42.688;23.366;2023-03-20T04:35:15;44.30;;;23.10;;
6529;SDS011;3298;42.688;23.366;2023-03-20T04:37:42;48.20;;;22.00;;
6529;SDS011;3298;42.688;23.366;2023-03-20T04:40:09;47.83;;;21.20;;
6529;SDS011;3298;42.688;23.366;2023-03-20T04:42:37;53.27;;;23.10;;
6529;SDS011;3298;42.688;23.366;2023-03-20T04:45:04;44.17;;;20.83;;
6529;SDS011;3298;42.688;23.366;2023-03-20T04:47:32;51.33;;;22.30;;
6529;SDS011;3298;42.688;23.366;2023-03-20T04:50:00;43.17;;;19.93;;
6529;SDS011;3298;42.688;23.366;2023-03-20T04:52:26;35.80;;;16.80;;
6529;SDS011;3298;42.688;23.366;2023-03-20T04:54:53;25.87;;;14.27;;
6529;SDS011;3298;42.688;23.366;2023-03-20T04:57:20;24.70;;;15.90;;
6529;SDS011;3298;42.688;23.366;2023-03-20T04:59:47;28.93;;;14.77;;
6529;SDS011;3298;42.688;23.366;2023-03-20T05:02:14;20.77;;;12.80;;
6529;SDS011;3298;42.688;23.366;2023-03-20T05:04:42;21.90;;;11.37;;
6529;SDS011;3298;42.688;23.366;2023-03-20T05:07:10;38.37;;;17.53;;
6529;SDS011;3298;42.688;23.366;2023-03-20T05:09:37;34.10;;;18.00;;
6529;SDS011;3298;42.688;23.366;2023-03-20T05:12:04;42.07;;;18.53;;
6529;SDS011;3298;42.688;23.366;2023-03-20T05:14:31;30.73;;;16.87;;
6529;SDS011;3298;42.688;23.366;2023-03-20T05:16:58;28.97;;;16.80;;
6529;SDS011;3298;42.688;23.366;2023-03-20T05:19:25;31.33;;;16.30;;
6529;SDS011;3298;42.688;23.366;2023-03-20T05:21:52;29.63;;;15.00;;
6529;SDS011;3298;42.688;23.366;2023-03-20T05:24:20;28.73;;;16.67;;
6529;SDS011;3298;42.688;23.366;2023-03-20T05:26:47;32.30;;;14.77;;
6529;SDS011;3298;42.688;23.366;2023-03-20T05:29:13;32.87;;;15.83;;
6529;SDS011;3298;42.688;23.366;2023-03-20T05:31:40;32.03;;;16.13;;
6529;SDS011;3298;42.688;23.366;2023-03-20T05:34:07;30.37;;;17.30;;
6529;SDS011;3298;42.688;23.366;2023-03-20T05:36:34;32.07;;;17.87;;
6529;SDS011;3298;42.688;23.366;2023-03-20T05:39:02;41.67;;;19.70;;
6529;SDS011;3298;42.688;23.366;2023-03-20T05:41:30;39.43;;;20.40;;
6529;SDS011;3298;42.688;23.366;2023-03-20T05:43:57;44.63;;;19.00;;
6529;SDS011;3298;42.688;23.366;2023-03-20T05:46:24;31.83;;;18.23;;
6529;SDS011;3298;42.688;23.366;2023-03-20T05:48:51;43.00;;;22.10;;
6529;SDS011;3298;42.688;23.366;2023-03-20T05:51:18;52.00;;;24.17;;
6529;SDS011;3298;42.688;23.366;2023-03-20T05:53:45;53.87;;;26.40;;
6529;SDS011;3298;42.688;23.366;2023-03-20T05:56:12;53.77;;;24.83;;
6529;SDS011;3298;42.688;23.366;2023-03-20T05:58:40;50.73;;;25.73;;
6529;SDS011;3298;42.688;23.366;2023-03-20T06:01:07;53.57;;;24.17;;
6529;SDS011;3298;42.688;23.366;2023-03-20T06:03:34;51.97;;;24.43;;
6529;SDS011;3298;42.688;23.366;2023-03-20T06:06:01;49.57;;;23.17;;
6529;SDS011;3298;42.688;23.366;2023-03-20T06:08:27;42.23;;;20.30;;
6529;SDS011;3298;42.688;23.366;2023-03-20T06:10:55;42.43;;;21.80;;
6529;SDS011;3298;42.688;23.366;2023-03-20T06:13:22;55.07;;;24.60;;
6529;SDS011;3298;42.688;23.366;2023-03-20T06:15:50;45.77;;;21.87;;
6529;SDS011;3298;42.688;23.366;2023-03-20T06:18:17;51.87;;;22.97;;
6529;SDS011;3298;42.688;23.366;2023-03-20T06:20:44;39.70;;;21.33;;
6529;SDS011;3298;42.688;23.366;2023-03-20T06:23:10;32.60;;;18.73;;
6529;SDS011;3298;42.688;23.366;2023-03-20T06:25:37;33.20;;;18.60;;
6529;SDS011;3298;42.688;23.366;2023-03-20T06:28:04;39.10;;;17.67;;
6529;SDS011;3298;42.688;23.366;2023-03-20T06:30:31;31.43;;;16.03;;
6529;SDS011;3298;42.688;23.366;2023-03-20T06:33:02;27.37;;;14.37;;
6529;SDS011;3298;42.688;23.366;2023-03-20T06:35:29;28.27;;;15.27;;
6529;SDS011;3298;42.688;23.366;2023-03-20T06:37:56;21.90;;;13.57;;
6529;SDS011;3298;42.688;23.366;2023-03-20T06:40:23;26.87;;;14.57;;
6529;SDS011;3298;42.688;23.366;2023-03-20T06:42:51;24.13;;;13.87;;
6529;SDS011;3298;42.688;23.366;2023-03-20T06:45:18;29.43;;;15.30;;
6529;SDS011;3298;42.688;23.366;2023-03-20T06:47:45;29.73;;;15.73;;
6529;SDS011;3298;42.688;23.366;2023-03-20T06:50:13;36.50;;;16.47;;
6529;SDS011;3298;42.688;23.366;2023-03-20T06:52:40;36.73;;;15.97;;
6529;SDS011;3298;42.688;23.366;2023-03-20T06:55:07;37.83;;;17.80;;
6529;SDS011;3298;42.688;23.366;2023-03-20T06:57:35;26.80;;;16.57;;
6529;SDS011;3298;42.688;23.366;2023-03-20T07:00:01;35.60;;;18.47;;
6529;SDS011;3298;42.688;23.366;2023-03-20T07:02:29;40.90;;;19.10;;
6529;SDS011;3298;42.688;23.366;2023-03-20T07:04:56;37.23;;;18.43;;
6529;SDS011;3298;42.688;23.366;2023-03-20T07:07:24;38.77;;;18.53;;
6529;SDS011;3298;42.688;23.366;2023-03-20T07:09:51;37.50;;;19.00;;
6529;SDS011;3298;42.688;23.366;2023-03-20T07:12:18;40.53;;;19.30;;
6529;SDS011;3298;42.688;23.366;2023-03-20T07:14:45;31.47;;;19.63;;
6529;SDS011;3298;42.688;23.366;2023-03-20T07:17:11;37.13;;;19.43;;
6529;SDS011;3298;42.688;23.366;2023-03-20T07:19:38;39.67;;;19.07;;
6529;SDS011;3298;42.688;23.366;2023-03-20T07:22:05;34.50;;;18.93;;
6529;SDS011;3298;42.688;23.366;2023-03-20T07:24:38;42.60;;;19.60;;
6529;SDS011;3298;42.688;23.366;2023-03-20T07:27:05;41.70;;;18.60;;
6529;SDS011;3298;42.688;23.366;2023-03-20T07:29:32;33.90;;;17.77;;
6529;SDS011;3298;42.688;23.366;2023-03-20T07:31:58;32.03;;;19.77;;
6529;SDS011;3298;42.688;23.366;2023-03-20T07:34:26;30.10;;;17.17;;
6529;SDS011;3298;42.688;23.366;2023-03-20T07:36:53;25.77;;;15.80;;
6529;SDS011;3298;42.688;23.366;2023-03-20T07:39:20;33.23;;;16.43;;
6529;SDS011;3298;42.688;23.366;2023-03-20T07:41:49;32.53;;;17.57;;
6529;SDS011;3298;42.688;23.366;2023-03-20T07:44:16;34.77;;;16.87;;
6529;SDS011;3298;42.688;23.366;2023-03-20T07:46:43;36.23;;;18.80;;
6529;SDS011;3298;42.688;23.366;2023-03-20T07:49:11;33.53;;;16.17;;
6529;SDS011;3298;42.688;23.366;2023-03-20T07:51:38;37.60;;;18.17;;
6529;SDS011;3298;42.688;23.366;2023-03-20T07:54:05;27.37;;;16.60;;
6529;SDS011;3298;42.688;23.366;2023-03-20T07:56:31;27.20;;;16.43;;
6529;SDS011;3298;42.688;23.366;2023-03-20T07:59:00;26.30;;;17.10;;
6529;SDS011;3298;42.688;23.366;2023-03-20T08:01:26;26.73;;;16.57;;
6529;SDS011;3298;42.688;23.366;2023-03-20T08:03:53;32.57;;;16.13;;
6529;SDS011;3298;42.688;23.366;2023-03-20T08:06:20;24.77;;;14.27;;
6529;SDS011;3298;42.688;23.366;2023-03-20T08:08:47;26.10;;;13.97;;
6529;SDS011;3298;42.688;23.366;2023-03-20T08:11:15;20.47;;;12.10;;
6529;SDS011;3298;42.688;23.366;2023-03-20T08:13:42;20.57;;;14.17;;
6529;SDS011;3298;42.688;23.366;2023-03-20T08:16:10;16.80;;;11.70;;
6529;SDS011;3298;42.688;23.366;2023-03-20T08:18:37;21.67;;;13.73;;
6529;SDS011;3298;42.688;23.366;2023-03-20T08:21:04;21.33;;;13.87;;
6529;SDS011;3298;42.688;23.366;2023-03-20T08:23:31;21.37;;;14.77;;
6529;SDS011;3298;42.688;23.366;2023-03-20T08:25:58;21.17;;;14.07;;
6529;SDS011;3298;42.688;23.366;2023-03-20T08:28:25;16.80;;;12.93;;
6529;SDS011;3298;42.688;23.366;2023-03-20T08:30:52;15.50;;;11.23;;
6529;SDS011;3298;42.688;23.366;2023-03-20T08:33:20;25.43;;;10.60;;
6529;SDS011;3298;42.688;23.366;2023-03-20T08:35:53;15.70;;;10.23;;
6529;SDS011;3298;42.688;23.366;2023-03-20T08:38:21;15.60;;;10.77;;
6529;SDS011;3298;42.688;23.366;2023-03-20T08:40:48;15.40;;;10.70;;
6529;SDS011;3298;42.688;23.366;2023-03-20T08:43:15;15.50;;;10.37;;
6529;SDS011;3298;42.688;23.366;2023-03-20T08:45:42;12.87;;;10.83;;
6529;SDS011;3298;42.688;23.366;2023-03-20T08:48:09;17.30;;;10.67;;
6529;SDS011;3298;42.688;23.366;2023-03-20T08:50:37;14.30;;;8.17;;
6529;SDS011;3298;42.688;23.366;2023-03-20T08:53:04;10.03;;;7.20;;
6529;SDS011;3298;42.688;23.366;2023-03-20T08:55:32;17.23;;;7.63;;
6529;SDS011;3298;42.688;23.366;2023-03-20T08:57:59;16.30;;;8.77;;
6529;SDS011;3298;42.688;23.366;2023-03-20T09:00:25;14.80;;;8.10;;
6529;SDS011;3298;42.688;23.366;2023-03-20T09:02:52;15.27;;;9.03;;
6529;SDS011;3298;42.688;23.366;2023-03-20T09:05:19;11.50;;;8.07;;
6529;SDS011;3298;42.688;23.366;2023-03-20T09:07:48;8.40;;;7.67;;
6529;SDS011;3298;42.688;23.366;2023-03-20T09:10:15;14.27;;;8.23;;
6529;SDS011;3298;42.688;23.366;2023-03-20T09:12:42;12.53;;;8.17;;
6529;SDS011;3298;42.688;23.366;2023-03-20T09:15:09;10.73;;;8.07;;
6529;SDS011;3298;42.688;23.366;2023-03-20T09:17:36;16.23;;;8.77;;
6529;SDS011;3298;42.688;23.366;2023-03-20T09:20:03;13.33;;;8.87;;
6529;SDS011;3298;42.688;23.366;2023-03-20T09:22:31;9.53;;;7.60;;
6529;SDS011;3298;42.688;23.366;2023-03-20T09:25:00;8.53;;;7.57;;
6529;SDS011;3298;42.688;23.366;2023-03-20T09:27:27;14.47;;;8.10;;
6529;SDS011;3298;42.688;23.366;2023-03-20T09:29:53;15.77;;;8.23;;
6529;SDS011;3298;42.688;23.366;2023-03-20T09:32:20;16.10;;;8.83;;
6529;SDS011;3298;42.688;23.366;2023-03-20T09:34:47;8.17;;;7.37;;
6529;SDS011;3298;42.688;23.366;2023-03-20T09:37:13;11.87;;;8.00;;
6529;SDS011;3298;42.688;23.366;2023-03-20T09:39:40;17.47;;;7.60;;
6529;SDS011;3298;42.688;23.366;2023-03-20T09:42:12;9.33;;;7.33;;
6529;SDS011;3298;42.688;23.366;2023-03-20T09:44:51;7.97;;;7.23;;
6529;SDS011;3298;42.688;23.366;2023-03-20T09:47:24;15.77;;;8.17;;
6529;SDS011;3298;42.688;23.366;2023-03-20T09:50:01;8.07;;;7.33;;
6529;SDS011;3298;42.688;23.366;2023-03-20T09:52:51;9.50;;;8.57;;
6529;SDS011;3298;42.688;23.366;2023-03-20T09:55:22;13.60;;;8.60;;
6529;SDS011;3298;42.688;23.366;2023-03-20T09:57:57;16.13;;;9.27;;
6529;SDS011;3298;42.688;23.366;2023-03-20T10:00:28;13.10;;;9.77;;
6529;SDS011;3298;42.688;23.366;2023-03-20T10:02:59;14.93;;;9.63;;
6529;SDS011;3298;42.688;23.366;2023-03-20T10:05:27;14.30;;;8.83;;
6529;SDS011;3298;42.688;23.366;2023-03-20T10:07:55;13.13;;;8.40;;
6529;SDS011;3298;42.688;23.366;2023-03-20T10:10:26;13.63;;;8.50;;
6529;SDS011;3298;42.688;23.366;2023-03-20T10:13:04;15.27;;;9.30;;
6529;SDS011;3298;42.688;23.366;2023-03-20T10:15:43;15.87;;;8.73;;
6529;SDS011;3298;42.688;23.366;2023-03-20T10:18:16;11.77;;;9.27;;
6529;SDS011;3298;42.688;23.366;2023-03-20T10:20:47;10.97;;;8.97;;
6529;SDS011;3298;42.688;23.366;2023-03-20T10:23:22;10.73;;;9.27;;
6529;SDS011;3298;42.688;23.366;2023-03-20T10:25:57;10.40;;;8.93;;
6529;SDS011;3298;42.688;23.366;2023-03-20T10:28:30;16.00;;;8.60;;
6529;SDS011;3298;42.688;23.366;2023-03-20T10:31:05;12.13;;;8.53;;
6529;SDS011;3298;42.688;23.366;2023-03-20T10:33:47;13.87;;;9.13;;
6529;SDS011;3298;42.688;23.366;2023-03-20T10:36:26;10.93;;;8.77;;
6529;SDS011;3298;42.688;23.366;2023-03-20T10:39:07;15.00;;;8.30;;
6529;SDS011;3298;42.688;23.366;2023-03-20T10:41:37;15.57;;;9.03;;
6529;SDS011;3298;42.688;23.366;2023-03-20T10:44:12;12.87;;;8.40;;
6529;SDS011;3298;42.688;23.366;2023-03-20T10:46:44;12.63;;;8.83;;
6529;SDS011;3298;42.688;23.366;2023-03-20T10:49:17;12.00;;;8.40;;
6529;SDS011;3298;42.688;23.366;2023-03-20T10:51:50;14.93;;;8.93;;
6529;SDS011;3298;42.688;23.366;2023-03-20T10:54:20;15.53;;;8.47;;
6529;SDS011;3298;42.688;23.366;2023-03-20T10:56:50;18.80;;;8.90;;
6529;SDS011;3298;42.688;23.366;2023-03-20T10:59:22;11.33;;;8.00;;
6529;SDS011;3298;42.688;23.366;2023-03-20T11:01:51;13.33;;;9.43;;
6529;SDS011;3298;42.688;23.366;2023-03-20T11:04:18;13.97;;;9.13;;
6529;SDS011;3298;42.688;23.366;2023-03-20T11:06:47;10.85;;;9.05;;
6529;SDS011;3298;42.688;23.366;2023-03-20T11:09:21;12.52;;;9.52;;
6529;SDS011;3298;42.688;23.366;2023-03-20T11:11:51;13.60;;;9.77;;
6529;SDS011;3298;42.688;23.366;2023-03-20T11:14:24;13.30;;;9.30;;
6529;SDS011;3298;42.688;23.366;2023-03-20T11:16:52;10.20;;;8.63;;
6529;SDS011;3298;42.688;23.366;2023-03-20T11:19:21;13.85;;;8.60;;
6529;SDS011;3298;42.688;23.366;2023-03-20T11:21:50;8.77;;;8.13;;
6529;SDS011;3298;42.688;23.366;2023-03-20T11:24:22;10.75;;;9.13;;
6529;SDS011;3298;42.688;23.366;2023-03-20T11:26:52;15.23;;;9.68;;
6529;SDS011;3298;42.688;23.366;2023-03-20T11:29:21;9.82;;;8.60;;
6529;SDS011;3298;42.688;23.366;2023-03-20T11:31:54;13.75;;;8.68;;
6529;SDS011;3298;42.688;23.366;2023-03-20T11:34:29;9.05;;;8.00;;
6529;SDS011;3298;42.688;23.366;2023-03-20T11:36:58;7.80;;;7.07;;
6529;SDS011;3298;42.688;23.366;2023-03-20T11:39:27;11.70;;;7.13;;
6529;SDS011;3298;42.688;23.366;2023-03-20T11:41:57;13.20;;;7.63;;
6529;SDS011;3298;42.688;23.366;2023-03-20T11:44:28;8.13;;;7.23;;
6529;SDS011;3298;42.688;23.366;2023-03-20T11:46:56;8.77;;;7.23;;
6529;SDS011;3298;42.688;23.366;2023-03-20T11:49:27;10.70;;;6.83;;
6529;SDS011;3298;42.688;23.366;2023-03-20T11:51:55;7.77;;;6.63;;
6529;SDS011;3298;42.688;23.366;2023-03-20T11:54:28;8.37;;;6.73;;
6529;SDS011;3298;42.688;23.366;2023-03-20T11:56:56;7.67;;;6.87;;
6529;SDS011;3298;42.688;23.366;2023-03-20T11:59:24;11.90;;;6.20;;
6529;SDS011;3298;42.688;23.366;2023-03-20T12:01:56;7.70;;;6.00;;
6529;SDS011;3298;42.688;23.366;2023-03-20T12:04:27;10.70;;;4.87;;
6529;SDS011;3298;42.688;23.366;2023-03-20T12:06:56;8.97;;;4.90;;
6529;SDS011;3298;42.688;23.366;2023-03-20T12:09:30;8.93;;;5.63;;
6529;SDS011;3298;42.688;23.366;2023-03-20T12:12:04;6.37;;;5.63;;
6529;SDS011;3298;42.688;23.366;2023-03-20T12:14:42;9.83;;;6.17;;
6529;SDS011;3298;42.688;23.366;2023-03-20T12:17:27;9.83;;;5.03;;
6529;SDS011;3298;42.688;23.366;2023-03-20T12:20:00;6.87;;;4.33;;
6529;SDS011;3298;42.688;23.366;2023-03-20T12:22:33;4.37;;;4.00;;
6529;SDS011;3298;42.688;23.366;2023-03-20T12:25:03;8.60;;;3.97;;
6529;SDS011;3298;42.688;23.366;2023-03-20T12:27:43;8.77;;;4.07;;
6529;SDS011;3298;42.688;23.366;2023-03-20T12:30:17;7.53;;;4.10;;
6529;SDS011;3298;42.688;23.366;2023-03-20T12:32:52;6.37;;;4.73;;
6529;SDS011;3298;42.688;23.366;2023-03-20T12:35:26;5.63;;;4.40;;
6529;SDS011;3298;42.688;23.366;2023-03-20T12:37:53;11.33;;;3.87;;
6529;SDS011;3298;42.688;23.366;2023-03-20T12:40:21;6.77;;;3.10;;
6529;SDS011;3298;42.688;23.366;2023-03-20T12:43:00;7.30;;;3.60;;
6529;SDS011;3298;42.688;23.366;2023-03-20T12:45:32;3.07;;;2.83;;
6529;SDS011;3298;42.688;23.366;2023-03-20T12:48:05;2.83;;;2.50;;
6529;SDS011;3298;42.688;23.366;2023-03-20T12:50:44;2.80;;;2.60;;
6529;SDS011;3298;42.688;23.366;2023-03-20T12:53:19;2.23;;;2.03;;
6529;SDS011;3298;42.688;23.366;2023-03-20T12:56:00;3.60;;;3.13;;
6529;SDS011;3298;42.688;23.366;2023-03-20T12:58:38;2.63;;;2.47;;
6529;SDS011;3298;42.688;23.366;2023-03-20T13:01:11;2.20;;;2.10;;
6529;SDS011;3298;42.688;23.366;2023-03-20T13:06:42;2.73;;;2.53;;
6529;SDS011;3298;42.688;23.366;2023-03-20T13:12:14;3.33;;;2.10;;
6529;SDS011;3298;42.688;23.366;2023-03-20T13:14:51;18.43;;;2.33;;
6529;SDS011;3298;42.688;23.366;2023-03-20T13:17:29;2.50;;;2.23;;
6529;SDS011;3298;42.688;23.366;2023-03-20T13:20:14;3.37;;;2.30;;
6529;SDS011;3298;42.688;23.366;2023-03-20T13:22:57;5.40;;;2.50;;
6529;SDS011;3298;42.688;23.366;2023-03-20T13:25:42;3.20;;;2.47;;
6529;SDS011;3298;42.688;23.366;2023-03-20T13:28:20;2.60;;;2.40;;
6529;SDS011;3298;42.688;23.366;2023-03-20T13:30:55;2.43;;;2.33;;
6529;SDS011;3298;42.688;23.366;2023-03-20T13:33:36;3.23;;;2.07;;
6529;SDS011;3298;42.688;23.366;2023-03-20T13:36:15;5.63;;;2.53;;
6529;SDS011;3298;42.688;23.366;2023-03-20T13:38:51;5.97;;;3.03;;
6529;SDS011;3298;42.688;23.366;2023-03-20T13:41:23;6.23;;;2.40;;
6529;SDS011;3298;42.688;23.366;2023-03-20T13:43:51;3.20;;;2.63;;
6529;SDS011;3298;42.688;23.366;2023-03-20T13:46:22;4.97;;;1.90;;
6529;SDS011;3298;42.688;23.366;2023-03-20T13:48:53;5.10;;;2.10;;
6529;SDS011;3298;42.688;23.366;2023-03-20T13:51:27;2.23;;;2.03;;
6529;SDS011;3298;42.688;23.366;2023-03-20T13:54:00;3.47;;;3.17;;
6529;SDS011;3298;42.688;23.366;2023-03-20T13:56:39;3.63;;;3.33;;
6529;SDS011;3298;42.688;23.366;2023-03-20T14:02:16;6.73;;;2.53;;
6529;SDS011;3298;42.688;23.366;2023-03-20T14:04:54;3.63;;;2.20;;
6529;SDS011;3298;42.688;23.366;2023-03-20T14:07:27;2.63;;;2.23;;
6529;SDS011;3298;42.688;23.366;2023-03-20T14:09:55;3.40;;;3.10;;
6529;SDS011;3298;42.688;23.366;2023-03-20T14:12:23;4.63;;;1.97;;
6529;SDS011;3298;42.688;23.366;2023-03-20T14:14:52;2.97;;;2.13;;
6529;SDS011;3298;42.688;23.366;2023-03-20T14:17:22;2.40;;;2.20;;
6529;SDS011;3298;42.688;23.366;2023-03-20T14:19:53;2.90;;;2.20;;
6529;SDS011;3298;42.688;23.366;2023-03-20T14:22:21;3.60;;;2.67;;
6529;SDS011;3298;42.688;23.366;2023-03-20T14:24:56;2.67;;;2.10;;
6529;SDS011;3298;42.688;23.366;2023-03-20T14:27:27;2.27;;;2.17;;
6529;SDS011;3298;42.688;23.366;2023-03-20T14:29:55;2.67;;;1.70;;
6529;SDS011;3298;42.688;23.366;2023-03-20T14:32:30;1.97;;;1.87;;
6529;SDS011;3298;42.688;23.366;2023-03-20T14:35:17;2.23;;;2.10;;
6529;SDS011;3298;42.688;23.366;2023-03-20T14:40:46;3.17;;;2.17;;
6529;SDS011;3298;42.688;23.366;2023-03-20T14:43:25;2.33;;;2.10;;
6529;SDS011;3298;42.688;23.366;2023-03-20T14:46:05;2.40;;;2.20;;
6529;SDS011;3298;42.688;23.366;2023-03-20T14:48:43;4.23;;;2.70;;
6529;SDS011;3298;42.688;23.366;2023-03-20T14:51:18;3.23;;;2.13;;
6529;SDS011;3298;42.688;23.366;2023-03-20T14:53:52;2.90;;;2.10;;
6529;SDS011;3298;42.688;23.366;2023-03-20T14:56:25;3.40;;;2.40;;
6529;SDS011;3298;42.688;23.366;2023-03-20T14:58:55;2.60;;;2.40;;
6529;SDS011;3298;42.688;23.366;2023-03-20T15:01:24;3.07;;;2.20;;
6529;SDS011;3298;42.688;23.366;2023-03-20T15:04:13;6.53;;;2.60;;
6529;SDS011;3298;42.688;23.366;2023-03-20T15:06:59;2.50;;;2.30;;
6529;SDS011;3298;42.688;23.366;2023-03-20T15:09:29;2.53;;;2.37;;
6529;SDS011;3298;42.688;23.366;2023-03-20T15:11:58;4.43;;;2.40;;
6529;SDS011;3298;42.688;23.366;2023-03-20T15:14:30;5.17;;;2.13;;
6529;SDS011;3298;42.688;23.366;2023-03-20T15:17:00;4.27;;;3.33;;
6529;SDS011;3298;42.688;23.366;2023-03-20T15:19:28;3.37;;;2.57;;
6529;SDS011;3298;42.688;23.366;2023-03-20T15:21:56;4.47;;;2.70;;
6529;SDS011;3298;42.688;23.366;2023-03-20T15:24:26;6.33;;;2.27;;
6529;SDS011;3298;42.688;23.366;2023-03-20T15:26:54;2.83;;;2.37;;